METAR Data
IDs: Format: Raw Decoded Include TAF

Data at: 2204 UTC 22 Sep 2020

METAR for:KCJR (Culpeper Rgnl, VA, US)
Text:KCJR 222155Z AUTO 00000KT 10SM CLR 22/09 A3006 RMK AO2 T02200093
Temperature: 22.0°C ( 72°F)
Dewpoint: 9.3°C ( 49°F) [RH = 44%]
Pressure (altimeter):30.06 inches Hg (1018.0 mb)
Winds:calm
Visibility:10 or more sm (16+ km)
Ceiling:at least 12,000 feet AGL
Clouds:sky clear below 12,000 feet AGL
QC Flag:automated observation with no human augmentation